LOT6KG EDDH-EPWA
Flight info
| Callsign | LOT6KG |
|---|---|
| Flight time | 1h 18m |
| Altitude | 37000 |
| Route | RAMAR6G RAMAR DCT PABMI DCT RADEL DCT ALUKA DCT DENKO P851 BIMPA |
| Aircraft | B738/M-SDE2E3FGHIJ1RWYZ/HLSB1 |
Departure
| Time | 2026-04-22 21:01 |
|---|---|
| Airport | Hamburg Helmut Schmidt Airport (EDDH) |
Arrival
| Time | 2026-04-22 22:20 |
|---|---|
| Airport | Warsaw Chopin Airport (EPWA) |
| Time | Latitude | Longitude | Altitude | Speed | Heading |
|---|---|---|---|---|---|
| 2026-04-22 20:40 | 53.62893 | 10.00209 | 50 ft | 0 kts | 122° |
| 2026-04-22 20:56 | 53.62897 | 10.00200 | 50 ft | 4 kts | 122° |
| 2026-04-22 20:56 | 53.62911 | 10.00161 | 50 ft | 4 kts | 122° |
| 2026-04-22 20:57 | 53.62923 | 10.00132 | 46 ft | 4 kts | 140° |
| 2026-04-22 20:57 | 53.62941 | 10.00125 | 48 ft | 4 kts | 211° |
| 2026-04-22 20:57 | 53.62954 | 10.00139 | 46 ft | 0 kts | 212° |
| 2026-04-22 20:59 | 53.62953 | 10.00138 | 45 ft | 1 kts | 212° |
| 2026-04-22 21:00 | 53.62925 | 10.00108 | 49 ft | 9 kts | 212° |
| 2026-04-22 21:00 | 53.62863 | 10.00018 | 49 ft | 15 kts | 238° |
| 2026-04-22 21:00 | 53.62818 | 9.99823 | 48 ft | 21 kts | 281° |
| 2026-04-22 21:00 | 53.62932 | 9.99685 | 48 ft | 23 kts | 333° |
| 2026-04-22 21:01 | 53.63258 | 9.99404 | 49 ft | 86 kts | 332° |
| 2026-04-22 21:01 | 53.63963 | 9.98792 | 57 ft | 137 kts | 330° |
| 2026-04-22 21:01 | 53.64890 | 9.98056 | 416 ft | 152 kts | 335° |
| 2026-04-22 21:01 | 53.65911 | 9.97389 | 955 ft | 162 kts | 338° |
| 2026-04-22 21:02 | 53.66953 | 9.96742 | 1729 ft | 153 kts | 332° |
| 2026-04-22 21:02 | 53.67940 | 9.95798 | 2238 ft | 179 kts | 330° |
| 2026-04-22 21:02 | 53.69081 | 9.94674 | 2670 ft | 197 kts | 336° |
| 2026-04-22 21:02 | 53.70461 | 9.94454 | 3285 ft | 203 kts | 1° |
| 2026-04-22 21:03 | 53.71883 | 9.94558 | 3943 ft | 206 kts | 4° |
| 2026-04-22 21:03 | 53.73248 | 9.95372 | 4619 ft | 214 kts | 30° |
| 2026-04-22 21:03 | 53.74286 | 9.97333 | 5031 ft | 240 kts | 57° |
| 2026-04-22 21:03 | 53.75097 | 9.99980 | 5472 ft | 261 kts | 60° |
| 2026-04-22 21:04 | 53.75894 | 10.02780 | 6326 ft | 266 kts | 61° |
| 2026-04-22 21:04 | 53.76676 | 10.05577 | 7218 ft | 268 kts | 64° |
| 2026-04-22 21:04 | 53.76937 | 10.08725 | 8057 ft | 280 kts | 96° |
| 2026-04-22 21:04 | 53.76407 | 10.11913 | 8984 ft | 283 kts | 104° |
| 2026-04-22 21:05 | 53.75804 | 10.15087 | 9852 ft | 286 kts | 104° |
| 2026-04-22 21:05 | 53.75187 | 10.18293 | 10660 ft | 290 kts | 105° |
| 2026-04-22 21:05 | 53.74543 | 10.21665 | 10940 ft | 314 kts | 105° |
| 2026-04-22 21:05 | 53.73851 | 10.25313 | 11174 ft | 336 kts | 105° |
| 2026-04-22 21:06 | 53.73127 | 10.29132 | 11781 ft | 345 kts | 105° |
| 2026-04-22 21:06 | 53.72392 | 10.33013 | 12585 ft | 348 kts | 105° |
| 2026-04-22 21:06 | 53.71654 | 10.36912 | 13433 ft | 350 kts | 105° |
| 2026-04-22 21:06 | 53.70910 | 10.40851 | 14248 ft | 354 kts | 105° |
| 2026-04-22 21:07 | 53.70167 | 10.44784 | 14983 ft | 358 kts | 105° |
| 2026-04-22 21:07 | 53.69406 | 10.48815 | 15731 ft | 363 kts | 105° |
| 2026-04-22 21:07 | 53.68635 | 10.52891 | 16489 ft | 367 kts | 106° |
| 2026-04-22 21:07 | 53.67853 | 10.57021 | 17236 ft | 372 kts | 106° |
| 2026-04-22 21:08 | 53.67061 | 10.61195 | 17979 ft | 376 kts | 106° |
| 2026-04-22 21:08 | 53.66258 | 10.65419 | 18690 ft | 381 kts | 106° |
| 2026-04-22 21:08 | 53.65444 | 10.69696 | 19356 ft | 384 kts | 106° |
| 2026-04-22 21:08 | 53.64624 | 10.73987 | 20078 ft | 385 kts | 106° |
| 2026-04-22 21:09 | 53.63800 | 10.78293 | 20770 ft | 387 kts | 107° |
| 2026-04-22 21:09 | 53.62968 | 10.82629 | 21433 ft | 390 kts | 107° |
| 2026-04-22 21:09 | 53.62141 | 10.86934 | 22067 ft | 393 kts | 107° |
| 2026-04-22 21:09 | 53.61294 | 10.91327 | 22712 ft | 396 kts | 107° |
| 2026-04-22 21:10 | 53.60441 | 10.95747 | 23348 ft | 398 kts | 107° |
| 2026-04-22 21:10 | 53.59580 | 11.00196 | 23952 ft | 401 kts | 107° |
| 2026-04-22 21:10 | 53.58712 | 11.04670 | 24499 ft | 402 kts | 107° |
| 2026-04-22 21:10 | 53.57843 | 11.09141 | 25084 ft | 402 kts | 107° |
| 2026-04-22 21:11 | 53.56972 | 11.13610 | 25664 ft | 402 kts | 107° |
| 2026-04-22 21:11 | 53.56099 | 11.18074 | 26208 ft | 402 kts | 107° |
| 2026-04-22 21:11 | 53.55223 | 11.22549 | 26728 ft | 403 kts | 107° |
| 2026-04-22 21:11 | 53.54344 | 11.27033 | 27242 ft | 404 kts | 106° |
| 2026-04-22 21:12 | 53.53585 | 11.31523 | 27696 ft | 405 kts | 101° |
| 2026-04-22 21:12 | 53.52997 | 11.36158 | 28150 ft | 407 kts | 100° |
| 2026-04-22 21:12 | 53.52453 | 11.40825 | 28612 ft | 408 kts | 99° |
| 2026-04-22 21:12 | 53.51916 | 11.45513 | 29081 ft | 408 kts | 99° |
| 2026-04-22 21:13 | 53.51374 | 11.50202 | 29532 ft | 410 kts | 99° |
| 2026-04-22 21:13 | 53.50820 | 11.54903 | 29959 ft | 411 kts | 99° |
| 2026-04-22 21:13 | 53.50256 | 11.59611 | 30373 ft | 412 kts | 100° |
| 2026-04-22 21:13 | 53.49685 | 11.64314 | 30834 ft | 410 kts | 100° |
| 2026-04-22 21:14 | 53.49112 | 11.68978 | 31395 ft | 405 kts | 100° |
| 2026-04-22 21:14 | 53.48541 | 11.73587 | 31950 ft | 401 kts | 100° |
| 2026-04-22 21:14 | 53.47981 | 11.78093 | 32428 ft | 399 kts | 100° |
| 2026-04-22 21:14 | 53.47414 | 11.82641 | 32868 ft | 397 kts | 100° |
| 2026-04-22 21:15 | 53.46848 | 11.87161 | 33339 ft | 395 kts | 99° |
| 2026-04-22 21:15 | 53.46284 | 11.91651 | 33839 ft | 392 kts | 99° |
| 2026-04-22 21:15 | 53.45722 | 11.96109 | 34313 ft | 389 kts | 99° |
| 2026-04-22 21:15 | 53.45162 | 12.00543 | 34641 ft | 389 kts | 99° |
| 2026-04-22 21:16 | 53.44597 | 12.05006 | 34829 ft | 392 kts | 99° |
| 2026-04-22 21:16 | 53.44028 | 12.09489 | 35060 ft | 394 kts | 99° |
| 2026-04-22 21:16 | 53.43455 | 12.13978 | 35358 ft | 394 kts | 100° |
| 2026-04-22 21:16 | 53.42880 | 12.18473 | 35628 ft | 394 kts | 100° |
| 2026-04-22 21:17 | 53.42310 | 12.22912 | 35850 ft | 396 kts | 100° |
| 2026-04-22 21:17 | 53.41729 | 12.27428 | 36111 ft | 397 kts | 100° |
| 2026-04-22 21:17 | 53.41145 | 12.31952 | 36376 ft | 397 kts | 100° |
| 2026-04-22 21:17 | 53.40557 | 12.36487 | 36585 ft | 399 kts | 100° |
| 2026-04-22 21:18 | 53.39966 | 12.41035 | 36815 ft | 400 kts | 100° |
| 2026-04-22 21:18 | 53.39371 | 12.45593 | 37078 ft | 400 kts | 100° |
| 2026-04-22 21:18 | 53.38774 | 12.50153 | 37278 ft | 402 kts | 100° |
| 2026-04-22 21:18 | 53.38170 | 12.54757 | 37261 ft | 406 kts | 100° |
| 2026-04-22 21:19 | 53.36959 | 12.63932 | 37256 ft | 405 kts | 100° |
| 2026-04-22 21:19 | 53.35749 | 12.73036 | 37260 ft | 398 kts | 100° |
| 2026-04-22 21:20 | 53.34542 | 12.82076 | 37265 ft | 398 kts | 100° |
| 2026-04-22 21:20 | 53.33327 | 12.91117 | 37266 ft | 398 kts | 100° |
| 2026-04-22 21:21 | 53.32113 | 13.00097 | 37260 ft | 399 kts | 100° |
| 2026-04-22 21:21 | 53.30882 | 13.09144 | 37261 ft | 399 kts | 100° |
| 2026-04-22 21:22 | 53.29642 | 13.18199 | 37258 ft | 400 kts | 100° |
| 2026-04-22 21:22 | 53.28393 | 13.27266 | 37257 ft | 401 kts | 100° |
| 2026-04-22 21:23 | 53.27135 | 13.36344 | 37262 ft | 401 kts | 100° |
| 2026-04-22 21:23 | 53.25878 | 13.45359 | 37254 ft | 402 kts | 100° |
| 2026-04-22 21:24 | 53.24604 | 13.54442 | 37254 ft | 402 kts | 100° |
| 2026-04-22 21:24 | 53.23321 | 13.63531 | 37254 ft | 402 kts | 100° |
| 2026-04-22 21:25 | 53.22040 | 13.72560 | 37249 ft | 403 kts | 101° |
| 2026-04-22 21:25 | 53.20742 | 13.81646 | 37251 ft | 403 kts | 101° |
| 2026-04-22 21:26 | 53.19437 | 13.90729 | 37248 ft | 403 kts | 101° |
| 2026-04-22 21:26 | 53.18126 | 13.99806 | 37243 ft | 403 kts | 101° |
| 2026-04-22 21:27 | 53.16808 | 14.08872 | 37240 ft | 402 kts | 101° |
| 2026-04-22 21:27 | 53.15493 | 14.17866 | 37238 ft | 402 kts | 101° |
| 2026-04-22 21:28 | 53.14164 | 14.26906 | 37240 ft | 402 kts | 101° |
| 2026-04-22 21:28 | 53.12829 | 14.35934 | 37235 ft | 401 kts | 101° |
| 2026-04-22 21:29 | 53.11488 | 14.44949 | 37237 ft | 401 kts | 101° |
| 2026-04-22 21:29 | 53.10149 | 14.53900 | 37233 ft | 401 kts | 101° |
| 2026-04-22 21:30 | 53.08796 | 14.62891 | 37232 ft | 401 kts | 101° |
| 2026-04-22 21:30 | 53.07437 | 14.71881 | 37224 ft | 401 kts | 101° |
| 2026-04-22 21:31 | 53.06079 | 14.80804 | 37221 ft | 401 kts | 101° |
| 2026-04-22 21:31 | 53.04706 | 14.89781 | 37226 ft | 401 kts | 101° |
| 2026-04-22 21:32 | 53.03327 | 14.98750 | 37223 ft | 401 kts | 101° |
| 2026-04-22 21:32 | 53.01939 | 15.07722 | 37221 ft | 401 kts | 101° |
| 2026-04-22 21:33 | 53.00544 | 15.16690 | 37221 ft | 401 kts | 101° |
| 2026-04-22 21:33 | 52.99151 | 15.25598 | 37218 ft | 402 kts | 101° |
| 2026-04-22 21:34 | 52.97741 | 15.34567 | 37218 ft | 402 kts | 101° |
| 2026-04-22 21:34 | 52.96323 | 15.43538 | 37208 ft | 402 kts | 101° |
| 2026-04-22 21:35 | 52.94898 | 15.52508 | 37211 ft | 402 kts | 101° |
| 2026-04-22 21:35 | 52.93474 | 15.61416 | 37205 ft | 403 kts | 101° |
| 2026-04-22 21:36 | 52.92033 | 15.70388 | 37206 ft | 403 kts | 101° |
| 2026-04-22 21:36 | 52.90586 | 15.79348 | 37205 ft | 403 kts | 101° |
| 2026-04-22 21:37 | 52.89130 | 15.88315 | 37205 ft | 403 kts | 101° |
| 2026-04-22 21:37 | 52.87678 | 15.97211 | 37203 ft | 403 kts | 101° |
| 2026-04-22 21:38 | 52.86209 | 16.06163 | 37199 ft | 403 kts | 101° |
| 2026-04-22 21:38 | 52.84733 | 16.15113 | 37199 ft | 403 kts | 101° |
| 2026-04-22 21:39 | 52.83250 | 16.24056 | 37195 ft | 403 kts | 101° |
| 2026-04-22 21:39 | 52.81762 | 16.32986 | 37192 ft | 403 kts | 101° |
| 2026-04-22 21:40 | 52.80276 | 16.41858 | 37194 ft | 403 kts | 101° |
| 2026-04-22 21:40 | 52.78773 | 16.50784 | 37187 ft | 403 kts | 101° |
| 2026-04-22 21:41 | 52.77263 | 16.59701 | 37184 ft | 403 kts | 101° |
| 2026-04-22 21:41 | 52.75747 | 16.68619 | 37185 ft | 403 kts | 101° |
| 2026-04-22 21:42 | 52.74235 | 16.77463 | 37175 ft | 403 kts | 101° |
| 2026-04-22 21:42 | 52.72705 | 16.86364 | 37175 ft | 403 kts | 101° |
| 2026-04-22 21:43 | 52.71172 | 16.95255 | 37171 ft | 403 kts | 101° |
| 2026-04-22 21:43 | 52.69656 | 17.04154 | 37167 ft | 402 kts | 98° |
| 2026-04-22 21:44 | 52.68662 | 17.13170 | 37167 ft | 400 kts | 95° |
| 2026-04-22 21:44 | 52.67743 | 17.22143 | 37168 ft | 400 kts | 95° |
| 2026-04-22 21:45 | 52.66796 | 17.31182 | 37162 ft | 400 kts | 95° |
| 2026-04-22 21:45 | 52.65829 | 17.40218 | 37158 ft | 401 kts | 96° |
| 2026-04-22 21:46 | 52.64850 | 17.49257 | 37159 ft | 401 kts | 96° |
| 2026-04-22 21:46 | 52.63870 | 17.58241 | 37154 ft | 402 kts | 96° |
| 2026-04-22 21:47 | 52.62875 | 17.67298 | 37155 ft | 402 kts | 96° |
| 2026-04-22 21:47 | 52.61872 | 17.76359 | 37147 ft | 402 kts | 96° |
| 2026-04-22 21:48 | 52.60862 | 17.85417 | 37146 ft | 403 kts | 96° |
| 2026-04-22 21:48 | 52.59852 | 17.94423 | 37149 ft | 403 kts | 96° |
| 2026-04-22 21:49 | 52.58824 | 18.03489 | 37128 ft | 404 kts | 96° |
| 2026-04-22 21:49 | 52.57775 | 18.12559 | 37014 ft | 406 kts | 96° |
| 2026-04-22 21:50 | 52.57243 | 18.17139 | 36534 ft | 407 kts | 96° |
| 2026-04-22 21:50 | 52.56711 | 18.21697 | 35964 ft | 405 kts | 96° |
| 2026-04-22 21:50 | 52.56179 | 18.26234 | 35327 ft | 405 kts | 96° |
| 2026-04-22 21:50 | 52.55653 | 18.30710 | 34833 ft | 402 kts | 95° |
| 2026-04-22 21:51 | 52.55124 | 18.35200 | 34382 ft | 398 kts | 95° |
| 2026-04-22 21:51 | 52.54598 | 18.39644 | 33905 ft | 395 kts | 95° |
| 2026-04-22 21:51 | 52.54076 | 18.44047 | 33407 ft | 391 kts | 95° |
| 2026-04-22 21:52 | 52.53043 | 18.52715 | 32502 ft | 383 kts | 95° |
| 2026-04-22 21:52 | 52.52533 | 18.56984 | 32068 ft | 379 kts | 95° |
| 2026-04-22 21:52 | 52.52025 | 18.61217 | 31632 ft | 376 kts | 95° |
| 2026-04-22 21:52 | 52.51521 | 18.65411 | 31209 ft | 373 kts | 95° |
| 2026-04-22 21:53 | 52.51024 | 18.69524 | 30797 ft | 371 kts | 95° |
| 2026-04-22 21:53 | 52.50524 | 18.73663 | 30382 ft | 369 kts | 95° |
| 2026-04-22 21:53 | 52.50024 | 18.77782 | 29835 ft | 369 kts | 95° |
| 2026-04-22 21:53 | 52.49520 | 18.81941 | 29038 ft | 373 kts | 95° |
| 2026-04-22 21:54 | 52.49011 | 18.86116 | 28496 ft | 372 kts | 95° |
| 2026-04-22 21:54 | 52.48502 | 18.90259 | 28032 ft | 369 kts | 95° |
| 2026-04-22 21:54 | 52.47996 | 18.94357 | 27627 ft | 365 kts | 95° |
| 2026-04-22 21:54 | 52.47494 | 18.98419 | 27208 ft | 361 kts | 95° |
| 2026-04-22 21:55 | 52.47004 | 19.02386 | 26807 ft | 358 kts | 95° |
| 2026-04-22 21:55 | 52.46510 | 19.06376 | 26400 ft | 356 kts | 95° |
| 2026-04-22 21:55 | 52.46018 | 19.10336 | 25999 ft | 353 kts | 95° |
| 2026-04-22 21:55 | 52.45528 | 19.14267 | 25605 ft | 351 kts | 95° |
| 2026-04-22 21:56 | 52.45039 | 19.18168 | 25225 ft | 348 kts | 96° |
| 2026-04-22 21:56 | 52.44552 | 19.22032 | 24900 ft | 345 kts | 96° |
| 2026-04-22 21:56 | 52.44067 | 19.25873 | 24518 ft | 343 kts | 96° |
| 2026-04-22 21:56 | 52.43584 | 19.29692 | 24143 ft | 342 kts | 96° |
| 2026-04-22 21:57 | 52.43108 | 19.33450 | 23755 ft | 341 kts | 96° |
| 2026-04-22 21:57 | 52.42626 | 19.37245 | 23297 ft | 341 kts | 96° |
| 2026-04-22 21:57 | 52.42143 | 19.41037 | 22875 ft | 339 kts | 96° |
| 2026-04-22 21:57 | 52.41661 | 19.44811 | 22460 ft | 338 kts | 96° |
| 2026-04-22 21:58 | 52.41180 | 19.48566 | 22062 ft | 336 kts | 96° |
| 2026-04-22 21:58 | 52.40701 | 19.52299 | 21669 ft | 335 kts | 96° |
| 2026-04-22 21:58 | 52.40221 | 19.56026 | 21277 ft | 334 kts | 96° |
| 2026-04-22 21:58 | 52.39741 | 19.59753 | 20894 ft | 336 kts | 96° |
| 2026-04-22 21:59 | 52.39264 | 19.63454 | 20513 ft | 339 kts | 96° |
| 2026-04-22 21:59 | 52.38771 | 19.67276 | 20132 ft | 348 kts | 96° |
| 2026-04-22 21:59 | 52.38265 | 19.71175 | 19728 ft | 351 kts | 96° |
| 2026-04-22 21:59 | 52.37774 | 19.75079 | 19323 ft | 347 kts | 91° |
| 2026-04-22 22:00 | 52.37841 | 19.78921 | 18981 ft | 331 kts | 71° |
| 2026-04-22 22:00 | 52.38551 | 19.82420 | 18744 ft | 321 kts | 63° |
| 2026-04-22 22:00 | 52.39383 | 19.85794 | 18492 ft | 319 kts | 61° |
| 2026-04-22 22:00 | 52.40238 | 19.89156 | 18224 ft | 322 kts | 61° |
| 2026-04-22 22:01 | 52.41101 | 19.92557 | 17943 ft | 325 kts | 61° |
| 2026-04-22 22:01 | 52.41948 | 19.95938 | 17673 ft | 325 kts | 62° |
| 2026-04-22 22:01 | 52.42794 | 19.99357 | 17410 ft | 323 kts | 62° |
| 2026-04-22 22:01 | 52.43630 | 20.02764 | 17156 ft | 321 kts | 62° |
| 2026-04-22 22:02 | 52.44459 | 20.06160 | 16902 ft | 320 kts | 62° |
| 2026-04-22 22:02 | 52.45282 | 20.09542 | 16647 ft | 319 kts | 62° |
| 2026-04-22 22:02 | 52.46102 | 20.12918 | 16398 ft | 318 kts | 62° |
| 2026-04-22 22:02 | 52.46919 | 20.16287 | 16155 ft | 318 kts | 62° |
| 2026-04-22 22:03 | 52.47732 | 20.19646 | 15904 ft | 317 kts | 62° |
| 2026-04-22 22:03 | 52.48546 | 20.23010 | 15655 ft | 317 kts | 62° |
| 2026-04-22 22:03 | 52.49344 | 20.26320 | 15412 ft | 317 kts | 63° |
| 2026-04-22 22:03 | 52.50154 | 20.29682 | 15160 ft | 316 kts | 63° |
| 2026-04-22 22:04 | 52.50650 | 20.33201 | 14890 ft | 323 kts | 83° |
| 2026-04-22 22:04 | 52.50310 | 20.36848 | 14651 ft | 328 kts | 105° |
| 2026-04-22 22:04 | 52.49288 | 20.40198 | 14413 ft | 327 kts | 115° |
| 2026-04-22 22:04 | 52.48154 | 20.43414 | 14147 ft | 325 kts | 116° |
| 2026-04-22 22:05 | 52.47010 | 20.46596 | 13901 ft | 324 kts | 116° |
| 2026-04-22 22:05 | 52.45868 | 20.49790 | 13621 ft | 325 kts | 116° |
| 2026-04-22 22:05 | 52.44749 | 20.52946 | 13350 ft | 324 kts | 116° |
| 2026-04-22 22:05 | 52.43623 | 20.56139 | 13092 ft | 323 kts | 116° |
| 2026-04-22 22:06 | 52.42505 | 20.59324 | 12845 ft | 322 kts | 115° |
| 2026-04-22 22:06 | 52.41395 | 20.62494 | 12588 ft | 320 kts | 116° |
| 2026-04-22 22:06 | 52.40286 | 20.65653 | 12341 ft | 319 kts | 116° |
| 2026-04-22 22:06 | 52.39181 | 20.68797 | 12091 ft | 318 kts | 116° |
| 2026-04-22 22:07 | 52.38079 | 20.71928 | 11804 ft | 318 kts | 116° |
| 2026-04-22 22:07 | 52.36973 | 20.75065 | 11512 ft | 318 kts | 116° |
| 2026-04-22 22:07 | 52.35869 | 20.78189 | 11219 ft | 316 kts | 116° |
| 2026-04-22 22:07 | 52.34790 | 20.81242 | 10922 ft | 313 kts | 116° |
| 2026-04-22 22:08 | 52.33707 | 20.84301 | 10642 ft | 309 kts | 116° |
| 2026-04-22 22:08 | 52.32633 | 20.87333 | 10341 ft | 306 kts | 116° |
| 2026-04-22 22:08 | 52.31570 | 20.90335 | 10043 ft | 304 kts | 116° |
| 2026-04-22 22:08 | 52.30513 | 20.93316 | 9739 ft | 302 kts | 116° |
| 2026-04-22 22:09 | 52.29464 | 20.96268 | 9426 ft | 299 kts | 116° |
| 2026-04-22 22:09 | 52.28422 | 20.99192 | 9135 ft | 296 kts | 116° |
| 2026-04-22 22:09 | 52.27340 | 21.02039 | 8842 ft | 296 kts | 127° |
| 2026-04-22 22:09 | 52.25756 | 21.04162 | 8597 ft | 295 kts | 149° |
| 2026-04-22 22:10 | 52.23977 | 21.05713 | 8329 ft | 294 kts | 152° |
| 2026-04-22 22:10 | 52.22156 | 21.07226 | 8050 ft | 293 kts | 153° |
| 2026-04-22 22:10 | 52.20344 | 21.08748 | 7775 ft | 293 kts | 153° |
| 2026-04-22 22:10 | 52.18544 | 21.10281 | 7501 ft | 291 kts | 153° |
| 2026-04-22 22:11 | 52.16758 | 21.11813 | 7230 ft | 289 kts | 153° |
| 2026-04-22 22:11 | 52.14982 | 21.13341 | 6958 ft | 288 kts | 153° |
| 2026-04-22 22:11 | 52.13222 | 21.14877 | 6675 ft | 287 kts | 153° |
| 2026-04-22 22:11 | 52.11494 | 21.16397 | 6393 ft | 285 kts | 153° |
| 2026-04-22 22:12 | 52.09768 | 21.17969 | 6100 ft | 284 kts | 152° |
| 2026-04-22 22:12 | 52.08051 | 21.19550 | 5818 ft | 283 kts | 152° |
| 2026-04-22 22:12 | 52.06347 | 21.21124 | 5537 ft | 281 kts | 152° |
| 2026-04-22 22:12 | 52.04650 | 21.22690 | 5255 ft | 280 kts | 152° |
| 2026-04-22 22:13 | 52.02964 | 21.24245 | 4975 ft | 278 kts | 152° |
| 2026-04-22 22:13 | 52.01177 | 21.25303 | 4650 ft | 272 kts | 180° |
| 2026-04-22 22:13 | 51.99413 | 21.24636 | 4401 ft | 256 kts | 218° |
| 2026-04-22 22:13 | 51.98328 | 21.22579 | 4173 ft | 232 kts | 256° |
| 2026-04-22 22:14 | 51.98296 | 21.20189 | 3944 ft | 207 kts | 294° |
| 2026-04-22 22:14 | 51.98663 | 21.18059 | 3925 ft | 194 kts | 273° |
| 2026-04-22 22:14 | 51.98635 | 21.15979 | 3915 ft | 176 kts | 280° |
| 2026-04-22 22:14 | 51.98750 | 21.14027 | 3903 ft | 172 kts | 288° |
| 2026-04-22 22:15 | 51.99402 | 21.12504 | 3707 ft | 166 kts | 326° |
| 2026-04-22 22:15 | 52.00361 | 21.11441 | 3528 ft | 168 kts | 325° |
| 2026-04-22 22:15 | 52.01303 | 21.10347 | 3372 ft | 165 kts | 326° |
| 2026-04-22 22:15 | 52.02248 | 21.09356 | 3307 ft | 158 kts | 329° |
| 2026-04-22 22:16 | 52.03201 | 21.08464 | 3133 ft | 162 kts | 331° |
| 2026-04-22 22:16 | 52.04193 | 21.07577 | 2910 ft | 163 kts | 332° |
| 2026-04-22 22:16 | 52.05180 | 21.06707 | 2687 ft | 160 kts | 332° |
| 2026-04-22 22:16 | 52.06149 | 21.05855 | 2473 ft | 157 kts | 332° |
| 2026-04-22 22:17 | 52.07111 | 21.05012 | 2258 ft | 157 kts | 332° |
| 2026-04-22 22:17 | 52.08044 | 21.04193 | 2038 ft | 146 kts | 332° |
| 2026-04-22 22:17 | 52.08888 | 21.03452 | 1867 ft | 128 kts | 332° |
| 2026-04-22 22:17 | 52.09652 | 21.02782 | 1695 ft | 122 kts | 332° |
| 2026-04-22 22:18 | 52.10395 | 21.02130 | 1521 ft | 124 kts | 332° |
| 2026-04-22 22:18 | 52.11162 | 21.01458 | 1349 ft | 126 kts | 332° |
| 2026-04-22 22:18 | 52.11954 | 21.00763 | 1168 ft | 134 kts | 331° |
| 2026-04-22 22:18 | 52.12794 | 21.00025 | 988 ft | 138 kts | 331° |
| 2026-04-22 22:19 | 52.13646 | 20.99279 | 800 ft | 140 kts | 330° |
| 2026-04-22 22:19 | 52.14510 | 20.98520 | 626 ft | 142 kts | 330° |
| 2026-04-22 22:19 | 52.15374 | 20.97764 | 420 ft | 138 kts | 330° |
| 2026-04-22 22:19 | 52.16166 | 20.97070 | 337 ft | 119 kts | 331° |
| 2026-04-22 22:20 | 52.16751 | 20.96551 | 338 ft | 75 kts | 332° |
| 2026-04-22 22:20 | 52.17076 | 20.96285 | 335 ft | 37 kts | 343° |
| 2026-04-22 22:20 | 52.17301 | 20.96251 | 332 ft | 22 kts | 1° |
| 2026-04-22 22:20 | 52.17414 | 20.96346 | 335 ft | 18 kts | 60° |
| 2026-04-22 22:21 | 52.17461 | 20.96487 | 334 ft | 13 kts | 65° |
| 2026-04-22 22:21 | 52.17426 | 20.96606 | 335 ft | 13 kts | 148° |
| 2026-04-22 22:21 | 52.17349 | 20.96675 | 331 ft | 13 kts | 152° |
| 2026-04-22 22:21 | 52.17273 | 20.96741 | 333 ft | 12 kts | 152° |
| 2026-04-22 22:22 | 52.17200 | 20.96806 | 335 ft | 12 kts | 151° |
| 2026-04-22 22:22 | 52.17128 | 20.96870 | 334 ft | 12 kts | 152° |
| 2026-04-22 22:22 | 52.17058 | 20.96931 | 332 ft | 11 kts | 152° |
| 2026-04-22 22:22 | 52.17027 | 20.97020 | 334 ft | 1 kts | 75° |
| 2026-04-22 22:23 | 52.17030 | 20.97033 | 334 ft | 1 kts | 70° |
| 2026-04-22 22:23 | 52.17035 | 20.97052 | 333 ft | 3 kts | 69° |
| 2026-04-22 22:23 | 52.17043 | 20.97088 | 333 ft | 3 kts | 70° |
| 2026-04-22 22:23 | 52.17047 | 20.97111 | 335 ft | 1 kts | 70° |
| 2026-04-22 22:24 | 52.17049 | 20.97116 | 335 ft | 0 kts | 70° |